sensor_id;sensor_type;location;lat;lon;timestamp;pressure;altitude;pressure_sealevel;temperature;humidity
15674;BME280;7937;48.090;16.212;2023-03-03T00:00:16;97837.97;;;0.92;67.16
15674;BME280;7937;48.090;16.212;2023-03-03T00:03:20;97872.69;;;1.17;67.03
15674;BME280;7937;48.090;16.212;2023-03-03T00:06:24;97870.06;;;1.17;67.04
15674;BME280;7937;48.090;16.212;2023-03-03T00:09:26;97876.31;;;1.16;66.81
15674;BME280;7937;48.090;16.212;2023-03-03T00:12:29;97878.75;;;1.17;67.09
15674;BME280;7937;48.090;16.212;2023-03-03T00:15:32;97865.34;;;1.12;66.83
15674;BME280;7937;48.090;16.212;2023-03-03T00:18:35;97869.91;;;1.18;66.85
15674;BME280;7937;48.090;16.212;2023-03-03T00:21:45;97875.78;;;1.20;66.73
15674;BME280;7937;48.090;16.212;2023-03-03T00:24:47;97870.34;;;1.22;66.81
15674;BME280;7937;48.090;16.212;2023-03-03T00:27:50;97870.19;;;1.23;66.83
15674;BME280;7937;48.090;16.212;2023-03-03T00:30:55;97874.16;;;1.19;67.01
15674;BME280;7937;48.090;16.212;2023-03-03T00:34:10;97855.03;;;1.11;67.16
15674;BME280;7937;48.090;16.212;2023-03-03T00:37:32;97865.56;;;1.25;66.97
15674;BME280;7937;48.090;16.212;2023-03-03T00:40:37;97868.81;;;1.27;67.04
15674;BME280;7937;48.090;16.212;2023-03-03T00:43:40;97868.81;;;1.27;67.03
15674;BME280;7937;48.090;16.212;2023-03-03T00:46:42;97860.78;;;1.29;67.06
15674;BME280;7937;48.090;16.212;2023-03-03T00:49:44;97869.19;;;1.24;67.26
15674;BME280;7937;48.090;16.212;2023-03-03T00:53:15;97863.41;;;1.29;67.28
15674;BME280;7937;48.090;16.212;2023-03-03T00:56:20;97864.03;;;1.31;67.28
15674;BME280;7937;48.090;16.212;2023-03-03T00:59:23;97847.81;;;1.27;67.51
15674;BME280;7937;48.090;16.212;2023-03-03T01:02:25;97852.44;;;1.25;67.87
15674;BME280;7937;48.090;16.212;2023-03-03T01:05:27;97845.09;;;1.21;67.45
15674;BME280;7937;48.090;16.212;2023-03-03T01:08:29;97847.53;;;1.22;67.40
15674;BME280;7937;48.090;16.212;2023-03-03T01:11:32;97852.97;;;1.21;67.26
15674;BME280;7937;48.090;16.212;2023-03-03T01:14:34;97825.28;;;1.03;67.27
15674;BME280;7937;48.090;16.212;2023-03-03T01:17:36;97844.53;;;1.11;67.36
15674;BME280;7937;48.090;16.212;2023-03-03T01:20:40;97838.19;;;1.05;67.33
15674;BME280;7937;48.090;16.212;2023-03-03T01:23:42;97835.31;;;1.00;67.15
15674;BME280;7937;48.090;16.212;2023-03-03T01:26:44;97837.63;;;0.95;66.88
15674;BME280;7937;48.090;16.212;2023-03-03T01:29:46;97826.69;;;0.91;67.24
15674;BME280;7937;48.090;16.212;2023-03-03T01:32:48;97822.47;;;0.82;66.89
15674;BME280;7937;48.090;16.212;2023-03-03T01:35:50;97826.72;;;0.83;67.03
15674;BME280;7937;48.090;16.212;2023-03-03T01:38:53;97824.63;;;0.78;66.57
15674;BME280;7937;48.090;16.212;2023-03-03T01:41:55;97813.03;;;0.73;66.64
15674;BME280;7937;48.090;16.212;2023-03-03T01:45:17;97813.41;;;0.70;66.52
15674;BME280;7937;48.090;16.212;2023-03-03T01:51:35;97804.59;;;0.63;66.80
15674;BME280;7937;48.090;16.212;2023-03-03T01:54:41;97814.81;;;0.58;66.96
15674;BME280;7937;48.090;16.212;2023-03-03T01:57:54;97818.13;;;0.51;67.04
15674;BME280;7937;48.090;16.212;2023-03-03T02:01:01;97820.75;;;0.51;67.12
15674;BME280;7937;48.090;16.212;2023-03-03T02:04:04;97815.50;;;0.51;66.63
15674;BME280;7937;48.090;16.212;2023-03-03T02:07:09;97817.13;;;0.52;67.24
15674;BME280;7937;48.090;16.212;2023-03-03T02:10:15;97819.94;;;0.51;66.54
15674;BME280;7937;48.090;16.212;2023-03-03T02:13:17;97814.69;;;0.51;67.29
15674;BME280;7937;48.090;16.212;2023-03-03T02:16:19;97729.91;;;-0.02;67.01
15674;BME280;7937;48.090;16.212;2023-03-03T02:19:34;97756.44;;;0.18;67.21
15674;BME280;7937;48.090;16.212;2023-03-03T02:22:57;97797.50;;;0.48;67.19
15674;BME280;7937;48.090;16.212;2023-03-03T02:29:09;97807.69;;;0.66;67.33
15674;BME280;7937;48.090;16.212;2023-03-03T02:32:12;97812.22;;;0.72;67.17
15674;BME280;7937;48.090;16.212;2023-03-03T02:35:25;97804.22;;;0.74;67.84
15674;BME280;7937;48.090;16.212;2023-03-03T02:38:31;97806.94;;;0.81;67.54
15674;BME280;7937;48.090;16.212;2023-03-03T02:45:24;97803.84;;;0.77;67.70
15674;BME280;7937;48.090;16.212;2023-03-03T02:48:26;97799.69;;;0.83;67.75
15674;BME280;7937;48.090;16.212;2023-03-03T02:51:28;97801.16;;;0.85;67.92
15674;BME280;7937;48.090;16.212;2023-03-03T02:54:30;97793.91;;;0.87;68.08
15674;BME280;7937;48.090;16.212;2023-03-03T02:57:35;97788.34;;;0.90;67.72
15674;BME280;7937;48.090;16.212;2023-03-03T03:00:38;97787.97;;;0.93;67.60
15674;BME280;7937;48.090;16.212;2023-03-03T03:03:40;97789.44;;;0.96;67.60
15674;BME280;7937;48.090;16.212;2023-03-03T03:06:43;97753.13;;;0.70;67.76
15674;BME280;7937;48.090;16.212;2023-03-03T03:09:47;97790.44;;;0.95;67.69
15674;BME280;7937;48.090;16.212;2023-03-03T03:12:51;97788.97;;;0.92;67.89
15674;BME280;7937;48.090;16.212;2023-03-03T03:15:53;97792.41;;;0.93;67.96
15674;BME280;7937;48.090;16.212;2023-03-03T03:18:55;97787.97;;;0.93;68.31
15674;BME280;7937;48.090;16.212;2023-03-03T03:21:57;97787.97;;;0.93;68.40
15674;BME280;7937;48.090;16.212;2023-03-03T03:25:00;97793.03;;;0.95;68.43
15674;BME280;7937;48.090;16.212;2023-03-03T03:28:03;97800.38;;;0.99;68.16
15674;BME280;7937;48.090;16.212;2023-03-03T03:31:06;97667.44;;;0.33;68.02
15674;BME280;7937;48.090;16.212;2023-03-03T03:34:09;97781.22;;;1.14;68.05
15674;BME280;7937;48.090;16.212;2023-03-03T03:37:11;97779.84;;;1.18;68.11
15674;BME280;7937;48.090;16.212;2023-03-03T03:40:14;97782.13;;;1.21;67.67
15674;BME280;7937;48.090;16.212;2023-03-03T03:43:17;97784.41;;;1.24;67.86
15674;BME280;7937;48.090;16.212;2023-03-03T03:46:20;97782.59;;;1.24;67.65
15674;BME280;7937;48.090;16.212;2023-03-03T03:49:23;97775.53;;;1.25;67.62
15674;BME280;7937;48.090;16.212;2023-03-03T03:52:26;97777.50;;;1.23;67.74
15674;BME280;7937;48.090;16.212;2023-03-03T03:55:28;97779.69;;;1.19;67.32
15674;BME280;7937;48.090;16.212;2023-03-03T03:58:31;97785.63;;;1.13;67.24
15674;BME280;7937;48.090;16.212;2023-03-03T04:01:37;97778.22;;;1.02;67.22
15674;BME280;7937;48.090;16.212;2023-03-03T04:04:39;97778.31;;;0.94;67.58
15674;BME280;7937;48.090;16.212;2023-03-03T04:07:41;97776.63;;;0.78;67.56
15674;BME280;7937;48.090;16.212;2023-03-03T04:10:43;97782.06;;;0.76;67.29
15674;BME280;7937;48.090;16.212;2023-03-03T04:13:45;97761.75;;;0.56;67.03
15674;BME280;7937;48.090;16.212;2023-03-03T04:16:47;97781.38;;;0.60;67.10
15674;BME280;7937;48.090;16.212;2023-03-03T04:19:53;97763.31;;;0.42;67.35
15674;BME280;7937;48.090;16.212;2023-03-03T04:22:55;97791.16;;;0.43;66.98
15674;BME280;7937;48.090;16.212;2023-03-03T04:25:58;97790.25;;;0.36;67.14
15674;BME280;7937;48.090;16.212;2023-03-03T04:29:01;97786.66;;;0.29;67.00
15674;BME280;7937;48.090;16.212;2023-03-03T04:32:04;97795.41;;;0.21;67.03
15674;BME280;7937;48.090;16.212;2023-03-03T04:35:07;97804.13;;;0.13;67.33
15674;BME280;7937;48.090;16.212;2023-03-03T04:38:14;97800.38;;;0.08;67.26
15674;BME280;7937;48.090;16.212;2023-03-03T04:41:17;97802.53;;;0.04;67.19
15674;BME280;7937;48.090;16.212;2023-03-03T04:44:19;97803.88;;;0.00;67.18
15674;BME280;7937;48.090;16.212;2023-03-03T04:47:22;97807.81;;;-0.04;67.20
15674;BME280;7937;48.090;16.212;2023-03-03T04:50:25;97806.72;;;-0.10;67.06
15674;BME280;7937;48.090;16.212;2023-03-03T04:53:27;97744.22;;;-0.52;67.01
15674;BME280;7937;48.090;16.212;2023-03-03T04:56:30;97755.03;;;-0.55;67.28
15674;BME280;7937;48.090;16.212;2023-03-03T04:59:34;97704.47;;;-0.95;67.20
15674;BME280;7937;48.090;16.212;2023-03-03T05:02:37;97793.25;;;-0.38;67.69
15674;BME280;7937;48.090;16.212;2023-03-03T05:05:39;97815.13;;;-0.31;67.38
15674;BME280;7937;48.090;16.212;2023-03-03T05:08:42;97781.69;;;-0.60;67.73
15674;BME280;7937;48.090;16.212;2023-03-03T05:11:44;97813.50;;;-0.40;67.74
15674;BME280;7937;48.090;16.212;2023-03-03T05:14:46;97815.50;;;-0.42;67.76
15674;BME280;7937;48.090;16.212;2023-03-03T05:17:48;97818.63;;;-0.46;67.92
15674;BME280;7937;48.090;16.212;2023-03-03T05:20:51;97818.13;;;-0.50;67.79
15674;BME280;7937;48.090;16.212;2023-03-03T05:23:53;97816.50;;;-0.51;67.89
15674;BME280;7937;48.090;16.212;2023-03-03T05:26:55;97820.91;;;-0.52;67.87
15674;BME280;7937;48.090;16.212;2023-03-03T05:29:57;97815.88;;;-0.53;68.04
15674;BME280;7937;48.090;16.212;2023-03-03T05:32:59;97819.63;;;-0.56;67.88
15674;BME280;7937;48.090;16.212;2023-03-03T05:36:01;97820.13;;;-0.60;67.86
15674;BME280;7937;48.090;16.212;2023-03-03T05:39:04;97820.94;;;-0.60;68.10
15674;BME280;7937;48.090;16.212;2023-03-03T05:42:06;97823.06;;;-0.55;67.76
15674;BME280;7937;48.090;16.212;2023-03-03T05:45:08;97784.22;;;-0.83;67.85
15674;BME280;7937;48.090;16.212;2023-03-03T05:48:10;97836.00;;;-0.54;67.98
15674;BME280;7937;48.090;16.212;2023-03-03T05:51:12;97836.44;;;-0.50;67.91
15674;BME280;7937;48.090;16.212;2023-03-03T05:54:14;97852.00;;;-0.48;67.90
15674;BME280;7937;48.090;16.212;2023-03-03T05:57:16;97814.63;;;-0.73;67.82
15674;BME280;7937;48.090;16.212;2023-03-03T06:00:19;97846.91;;;-0.42;67.91
15674;BME280;7937;48.090;16.212;2023-03-03T06:03:21;97834.31;;;-0.46;67.80
15674;BME280;7937;48.090;16.212;2023-03-03T06:06:23;97850.28;;;-0.25;68.25
15674;BME280;7937;48.090;16.212;2023-03-03T06:09:25;97851.06;;;-0.16;68.55
15674;BME280;7937;48.090;16.212;2023-03-03T06:12:27;97848.72;;;-0.03;68.06
15674;BME280;7937;48.090;16.212;2023-03-03T06:15:29;97848.66;;;0.13;68.16
15674;BME280;7937;48.090;16.212;2023-03-03T06:18:31;97855.47;;;0.22;67.95
15674;BME280;7937;48.090;16.212;2023-03-03T06:21:33;97856.84;;;0.41;67.35
15674;BME280;7937;48.090;16.212;2023-03-03T06:24:35;97867.22;;;0.58;66.86
15674;BME280;7937;48.090;16.212;2023-03-03T06:27:37;97861.91;;;0.74;67.23
15674;BME280;7937;48.090;16.212;2023-03-03T06:30:39;97856.56;;;0.82;66.81
15674;BME280;7937;48.090;16.212;2023-03-03T06:33:41;97862.34;;;1.00;66.80
15674;BME280;7937;48.090;16.212;2023-03-03T06:36:44;97871.06;;;1.16;66.26
15674;BME280;7937;48.090;16.212;2023-03-03T06:39:46;97872.63;;;1.25;65.66
15674;BME280;7937;48.090;16.212;2023-03-03T06:42:48;97843.66;;;1.18;65.76
15674;BME280;7937;48.090;16.212;2023-03-03T06:45:50;97871.03;;;1.39;65.86
15674;BME280;7937;48.090;16.212;2023-03-03T06:48:52;97871.56;;;1.34;66.11
15674;BME280;7937;48.090;16.212;2023-03-03T06:51:55;97863.78;;;1.41;65.82
15674;BME280;7937;48.090;16.212;2023-03-03T06:55:01;97865.53;;;1.48;65.54
15674;BME280;7937;48.090;16.212;2023-03-03T06:58:13;97861.53;;;1.52;64.67
15674;BME280;7937;48.090;16.212;2023-03-03T07:01:16;97871.50;;;1.72;64.02
15674;BME280;7937;48.090;16.212;2023-03-03T07:04:27;97852.94;;;1.59;65.58
15674;BME280;7937;48.090;16.212;2023-03-03T07:07:29;97880.09;;;1.80;64.42
15674;BME280;7937;48.090;16.212;2023-03-03T07:10:32;97878.69;;;1.93;65.36
15674;BME280;7937;48.090;16.212;2023-03-03T07:13:38;97878.66;;;2.08;64.85
15674;BME280;7937;48.090;16.212;2023-03-03T07:16:41;97881.97;;;2.16;64.74
15674;BME280;7937;48.090;16.212;2023-03-03T07:19:45;97886.34;;;2.24;64.63
15674;BME280;7937;48.090;16.212;2023-03-03T07:22:47;97890.41;;;2.26;64.44
15674;BME280;7937;48.090;16.212;2023-03-03T07:25:50;97874.00;;;2.24;64.76
15674;BME280;7937;48.090;16.212;2023-03-03T07:32:27;97892.88;;;2.64;64.41
15674;BME280;7937;48.090;16.212;2023-03-03T07:35:42;97907.28;;;2.68;64.63
15674;BME280;7937;48.090;16.212;2023-03-03T07:38:53;97899.69;;;2.80;64.60
15674;BME280;7937;48.090;16.212;2023-03-03T07:42:24;97909.91;;;2.90;65.09
15674;BME280;7937;48.090;16.212;2023-03-03T07:45:42;97898.28;;;2.99;64.59
15674;BME280;7937;48.090;16.212;2023-03-03T07:48:44;97902.06;;;3.11;63.09
15674;BME280;7937;48.090;16.212;2023-03-03T07:51:47;97904.13;;;3.44;60.69
15674;BME280;7937;48.090;16.212;2023-03-03T07:54:49;97893.03;;;3.76;58.44
15674;BME280;7937;48.090;16.212;2023-03-03T07:57:52;97896.84;;;4.08;56.83
15674;BME280;7937;48.090;16.212;2023-03-03T08:04:43;97907.41;;;4.56;55.25
15674;BME280;7937;48.090;16.212;2023-03-03T08:07:51;97909.94;;;4.84;53.86
15674;BME280;7937;48.090;16.212;2023-03-03T08:10:55;97917.94;;;5.24;53.89
15674;BME280;7937;48.090;16.212;2023-03-03T08:13:58;97919.56;;;5.72;52.26
15674;BME280;7937;48.090;16.212;2023-03-03T08:17:01;97916.84;;;6.25;50.42
15674;BME280;7937;48.090;16.212;2023-03-03T08:23:37;97914.50;;;10.74;39.48
15674;BME280;7937;48.090;16.212;2023-03-03T08:26:39;97921.53;;;12.87;34.58
15674;BME280;7937;48.090;16.212;2023-03-03T08:29:41;97919.41;;;15.33;30.45
15674;BME280;7937;48.090;16.212;2023-03-03T08:32:43;97901.47;;;17.63;25.86
15674;BME280;7937;48.090;16.212;2023-03-03T08:35:46;97924.13;;;18.25;24.95
15674;BME280;7937;48.090;16.212;2023-03-03T08:38:48;97920.63;;;16.63;26.67
15674;BME280;7937;48.090;16.212;2023-03-03T08:41:50;97919.41;;;15.38;28.42
15674;BME280;7937;48.090;16.212;2023-03-03T08:44:52;97915.41;;;13.73;30.95
15674;BME280;7937;48.090;16.212;2023-03-03T08:47:55;97918.69;;;14.69;30.32
15674;BME280;7937;48.090;16.212;2023-03-03T08:50:57;97892.91;;;14.11;29.79
15674;BME280;7937;48.090;16.212;2023-03-03T08:53:59;97918.22;;;12.80;31.88
15674;BME280;7937;48.090;16.212;2023-03-03T08:57:01;97914.16;;;10.70;35.67
15674;BME280;7937;48.090;16.212;2023-03-03T09:00:06;97905.22;;;9.89;38.51
15674;BME280;7937;48.090;16.212;2023-03-03T09:03:08;97920.09;;;9.55;39.23
15674;BME280;7937;48.090;16.212;2023-03-03T09:06:10;97916.38;;;9.44;38.98
15674;BME280;7937;48.090;16.212;2023-03-03T09:09:12;97919.38;;;8.94;40.04
15674;BME280;7937;48.090;16.212;2023-03-03T09:12:22;97925.75;;;9.05;40.06
15674;BME280;7937;48.090;16.212;2023-03-03T09:15:36;97917.69;;;8.82;40.34
15674;BME280;7937;48.090;16.212;2023-03-03T09:18:39;97913.06;;;9.07;41.32
15674;BME280;7937;48.090;16.212;2023-03-03T09:21:41;97921.31;;;9.29;42.00
15674;BME280;7937;48.090;16.212;2023-03-03T09:24:45;97908.94;;;9.23;41.21
15674;BME280;7937;48.090;16.212;2023-03-03T09:27:48;97917.19;;;9.45;40.69
15674;BME280;7937;48.090;16.212;2023-03-03T09:30:51;97922.88;;;9.48;40.86
15674;BME280;7937;48.090;16.212;2023-03-03T09:33:53;97926.59;;;9.59;40.08
15674;BME280;7937;48.090;16.212;2023-03-03T09:36:58;97943.38;;;9.71;40.39
15674;BME280;7937;48.090;16.212;2023-03-03T09:40:18;97910.19;;;9.62;39.25
15674;BME280;7937;48.090;16.212;2023-03-03T09:43:54;97946.72;;;9.67;39.83
15674;BME280;7937;48.090;16.212;2023-03-03T09:57:13;97968.88;;;9.37;39.64
15674;BME280;7937;48.090;16.212;2023-03-03T10:00:30;97965.53;;;9.42;39.84
15674;BME280;7937;48.090;16.212;2023-03-03T10:07:07;97953.78;;;9.73;38.87
15674;BME280;7937;48.090;16.212;2023-03-03T10:23:33;97954.31;;;10.80;36.22
15674;BME280;7937;48.090;16.212;2023-03-03T10:27:46;97950.91;;;10.56;36.93
15674;BME280;7937;48.090;16.212;2023-03-03T10:41:03;97937.25;;;11.84;35.42
15674;BME280;7937;48.090;16.212;2023-03-03T10:44:33;97935.63;;;11.83;34.69
15674;BME280;7937;48.090;16.212;2023-03-03T10:50:59;97919.50;;;12.11;34.50
15674;BME280;7937;48.090;16.212;2023-03-03T11:01:15;97918.97;;;11.93;34.42
15674;BME280;7937;48.090;16.212;2023-03-03T11:04:41;97918.31;;;12.02;33.70
15674;BME280;7937;48.090;16.212;2023-03-03T11:11:53;97905.91;;;11.96;34.02
15674;BME280;7937;48.090;16.212;2023-03-03T11:18:24;97904.63;;;11.48;34.12
15674;BME280;7937;48.090;16.212;2023-03-03T11:21:46;97887.06;;;11.52;33.17
15674;BME280;7937;48.090;16.212;2023-03-03T11:31:41;97897.38;;;12.16;33.17
15674;BME280;7937;48.090;16.212;2023-03-03T11:41:35;97912.00;;;12.08;33.89
15674;BME280;7937;48.090;16.212;2023-03-03T11:44:44;97890.81;;;11.85;34.17
15674;BME280;7937;48.090;16.212;2023-03-03T11:48:03;97891.09;;;12.05;34.52
15674;BME280;7937;48.090;16.212;2023-03-03T11:51:35;97892.94;;;11.83;34.06
15674;BME280;7937;48.090;16.212;2023-03-03T11:54:52;97873.59;;;11.59;35.02
15674;BME280;7937;48.090;16.212;2023-03-03T11:58:21;97874.63;;;11.41;34.77
15674;BME280;7937;48.090;16.212;2023-03-03T12:01:34;97857.75;;;11.19;35.39
15674;BME280;7937;48.090;16.212;2023-03-03T12:04:48;97869.00;;;10.92;36.57
15674;BME280;7937;48.090;16.212;2023-03-03T12:11:19;97859.25;;;11.15;35.74
15674;BME280;7937;48.090;16.212;2023-03-03T12:14:38;97854.25;;;11.52;35.02
15674;BME280;7937;48.090;16.212;2023-03-03T12:18:06;97854.19;;;11.63;35.44
15674;BME280;7937;48.090;16.212;2023-03-03T12:21:22;97847.94;;;11.75;34.70
15674;BME280;7937;48.090;16.212;2023-03-03T12:41:45;97833.97;;;11.68;34.73
15674;BME280;7937;48.090;16.212;2023-03-03T12:44:39;97834.28;;;11.88;34.54
15674;BME280;7937;48.090;16.212;2023-03-03T12:47:49;97828.94;;;11.37;34.93
15674;BME280;7937;48.090;16.212;2023-03-03T13:07:36;97821.59;;;11.28;36.06
15674;BME280;7937;48.090;16.212;2023-03-03T13:20:55;97811.59;;;11.35;35.55
15674;BME280;7937;48.090;16.212;2023-03-03T13:27:18;97795.97;;;11.27;35.80
15674;BME280;7937;48.090;16.212;2023-03-03T13:30:25;97794.53;;;11.19;35.93
15674;BME280;7937;48.090;16.212;2023-03-03T13:33:33;97802.84;;;11.40;35.73
15674;BME280;7937;48.090;16.212;2023-03-03T13:36:57;97801.38;;;10.98;35.78
15674;BME280;7937;48.090;16.212;2023-03-03T13:40:13;97795.06;;;10.88;36.28
15674;BME280;7937;48.090;16.212;2023-03-03T13:43:43;97795.03;;;11.16;36.36
15674;BME280;7937;48.090;16.212;2023-03-03T13:47:04;97793.66;;;11.30;36.21
15674;BME280;7937;48.090;16.212;2023-03-03T14:06:48;97785.97;;;11.17;36.19
15674;BME280;7937;48.090;16.212;2023-03-03T14:13:08;97762.28;;;10.70;37.02
15674;BME280;7937;48.090;16.212;2023-03-03T14:19:37;97784.03;;;10.96;37.11
15674;BME280;7937;48.090;16.212;2023-03-03T14:22:45;97789.53;;;10.89;37.75
15674;BME280;7937;48.090;16.212;2023-03-03T14:32:29;97774.22;;;10.68;38.46
15674;BME280;7937;48.090;16.212;2023-03-03T14:39:00;97772.59;;;10.67;38.45
15674;BME280;7937;48.090;16.212;2023-03-03T14:42:13;97771.56;;;10.68;38.25
15674;BME280;7937;48.090;16.212;2023-03-03T14:45:32;97779.41;;;10.74;37.75
15674;BME280;7937;48.090;16.212;2023-03-03T14:48:49;97775.53;;;10.65;38.29
15674;BME280;7937;48.090;16.212;2023-03-03T14:51:51;97780.16;;;10.58;38.49
15674;BME280;7937;48.090;16.212;2023-03-03T14:54:56;97778.00;;;10.55;38.46
15674;BME280;7937;48.090;16.212;2023-03-03T14:58:00;97778.13;;;10.48;38.96
15674;BME280;7937;48.090;16.212;2023-03-03T15:01:33;97781.56;;;10.32;39.13
15674;BME280;7937;48.090;16.212;2023-03-03T15:04:35;97780.06;;;10.36;39.01
15674;BME280;7937;48.090;16.212;2023-03-03T15:07:38;97784.22;;;10.32;39.83
15674;BME280;7937;48.090;16.212;2023-03-03T15:10:43;97780.66;;;10.26;39.02
15674;BME280;7937;48.090;16.212;2023-03-03T15:13:45;97782.53;;;10.26;39.12
15674;BME280;7937;48.090;16.212;2023-03-03T15:16:47;97777.88;;;10.21;39.63
15674;BME280;7937;48.090;16.212;2023-03-03T15:26:55;97773.16;;;10.00;39.89
15674;BME280;7937;48.090;16.212;2023-03-03T15:30:10;97778.63;;;9.93;40.22
15674;BME280;7937;48.090;16.212;2023-03-03T15:36:48;97774.97;;;9.82;40.34
15674;BME280;7937;48.090;16.212;2023-03-03T15:40:15;97772.75;;;9.79;40.73
15674;BME280;7937;48.090;16.212;2023-03-03T15:43:30;97774.28;;;9.75;40.86
15674;BME280;7937;48.090;16.212;2023-03-03T16:02:55;97777.28;;;8.97;44.73
15674;BME280;7937;48.090;16.212;2023-03-03T16:06:10;97777.59;;;8.77;45.57
15674;BME280;7937;48.090;16.212;2023-03-03T16:26:34;97797.13;;;7.67;48.99
15674;BME280;7937;48.090;16.212;2023-03-03T16:29:45;97798.94;;;7.48;48.87
15674;BME280;7937;48.090;16.212;2023-03-03T16:36:25;97812.28;;;7.17;49.46
15674;BME280;7937;48.090;16.212;2023-03-03T16:39:41;97819.97;;;7.00;50.02
15674;BME280;7937;48.090;16.212;2023-03-03T16:42:58;97813.59;;;6.76;50.47
15674;BME280;7937;48.090;16.212;2023-03-03T16:50:03;97825.69;;;6.27;52.46
15674;BME280;7937;48.090;16.212;2023-03-03T16:57:10;97839.22;;;5.99;53.10
15674;BME280;7937;48.090;16.212;2023-03-03T17:00:26;97840.03;;;5.80;53.66
15674;BME280;7937;48.090;16.212;2023-03-03T17:10:27;97698.56;;;4.33;54.50
15674;BME280;7937;48.090;16.212;2023-03-03T17:13:52;97861.84;;;5.15;55.02
15674;BME280;7937;48.090;16.212;2023-03-03T17:23:50;97873.38;;;4.68;56.21
15674;BME280;7937;48.090;16.212;2023-03-03T17:30:28;97879.19;;;4.44;57.06
15674;BME280;7937;48.090;16.212;2023-03-03T17:44:01;97901.44;;;3.93;58.77
15674;BME280;7937;48.090;16.212;2023-03-03T17:47:12;97903.00;;;3.81;59.08
15674;BME280;7937;48.090;16.212;2023-03-03T17:53:58;97854.72;;;3.18;60.36
15674;BME280;7937;48.090;16.212;2023-03-03T18:10:41;97920.53;;;3.18;61.45
15674;BME280;7937;48.090;16.212;2023-03-03T18:21:01;97929.03;;;2.98;61.84
15674;BME280;7937;48.090;16.212;2023-03-03T18:24:32;97896.50;;;2.63;61.81
15674;BME280;7937;48.090;16.212;2023-03-03T18:27:40;97933.34;;;2.84;62.32
15674;BME280;7937;48.090;16.212;2023-03-03T18:30:58;97943.81;;;2.78;62.21
15674;BME280;7937;48.090;16.212;2023-03-03T18:34:24;97933.59;;;2.68;62.47
15674;BME280;7937;48.090;16.212;2023-03-03T18:40:33;97928.34;;;2.53;62.87
15674;BME280;7937;48.090;16.212;2023-03-03T18:46:46;97937.88;;;2.40;63.63
15674;BME280;7937;48.090;16.212;2023-03-03T18:49:52;97937.28;;;2.38;63.08
15674;BME280;7937;48.090;16.212;2023-03-03T19:00:15;97938.09;;;2.23;63.03
15674;BME280;7937;48.090;16.212;2023-03-03T19:09:49;97940.25;;;2.05;63.23
15674;BME280;7937;48.090;16.212;2023-03-03T19:12:56;97935.94;;;1.97;63.44
15674;BME280;7937;48.090;16.212;2023-03-03T19:19:32;97941.25;;;1.89;63.54
15674;BME280;7937;48.090;16.212;2023-03-03T19:23:05;97940.50;;;1.80;63.35
15674;BME280;7937;48.090;16.212;2023-03-03T19:30:16;97940.59;;;1.72;63.68
15674;BME280;7937;48.090;16.212;2023-03-03T19:33:55;97949.19;;;1.66;64.21
15674;BME280;7937;48.090;16.212;2023-03-03T19:47:00;97958.59;;;1.61;64.08
15674;BME280;7937;48.090;16.212;2023-03-03T19:51:26;97961.94;;;1.54;64.26
15674;BME280;7937;48.090;16.212;2023-03-03T20:17:47;97927.69;;;1.10;64.63
15674;BME280;7937;48.090;16.212;2023-03-03T20:27:46;97984.06;;;1.37;64.83
15674;BME280;7937;48.090;16.212;2023-03-03T20:31:17;97959.03;;;1.26;64.86
15674;BME280;7937;48.090;16.212;2023-03-03T20:34:54;97981.56;;;1.44;64.51
15674;BME280;7937;48.090;16.212;2023-03-03T20:38:05;97986.16;;;1.42;64.57
15674;BME280;7937;48.090;16.212;2023-03-03T20:41:41;97924.63;;;0.98;64.78
15674;BME280;7937;48.090;16.212;2023-03-03T21:02:31;97989.91;;;1.24;65.18
15674;BME280;7937;48.090;16.212;2023-03-03T21:05:58;97997.13;;;1.22;65.16
15674;BME280;7937;48.090;16.212;2023-03-03T21:09:00;97931.81;;;0.82;65.17
15674;BME280;7937;48.090;16.212;2023-03-03T21:12:25;97939.16;;;0.86;65.31
15674;BME280;7937;48.090;16.212;2023-03-03T21:15:31;98000.09;;;1.19;65.17
15674;BME280;7937;48.090;16.212;2023-03-03T21:18:35;97999.00;;;1.14;65.08
15674;BME280;7937;48.090;16.212;2023-03-03T21:21:40;98007.72;;;1.06;65.35
15674;BME280;7937;48.090;16.212;2023-03-03T21:24:54;97935.06;;;0.61;65.99
15674;BME280;7937;48.090;16.212;2023-03-03T21:28:25;97994.66;;;0.98;66.23
15674;BME280;7937;48.090;16.212;2023-03-03T21:31:43;98000.88;;;0.97;65.83
15674;BME280;7937;48.090;16.212;2023-03-03T21:34:45;97993.38;;;0.94;65.87
15674;BME280;7937;48.090;16.212;2023-03-03T21:37:54;97818.53;;;-0.22;66.22
15674;BME280;7937;48.090;16.212;2023-03-03T21:41:01;98005.19;;;0.90;65.87
15674;BME280;7937;48.090;16.212;2023-03-03T21:44:34;98001.28;;;0.86;66.12
15674;BME280;7937;48.090;16.212;2023-03-03T21:47:38;98007.84;;;0.82;66.11
15674;BME280;7937;48.090;16.212;2023-03-03T21:50:40;98002.94;;;0.78;66.24
15674;BME280;7937;48.090;16.212;2023-03-03T21:53:43;98014.44;;;0.77;66.12
15674;BME280;7937;48.090;16.212;2023-03-03T21:56:46;98012.97;;;0.75;65.92
15674;BME280;7937;48.090;16.212;2023-03-03T21:59:50;98022.16;;;0.71;65.67
15674;BME280;7937;48.090;16.212;2023-03-03T22:02:53;98024.31;;;0.67;65.80
15674;BME280;7937;48.090;16.212;2023-03-03T22:05:56;98017.94;;;0.62;66.09
15674;BME280;7937;48.090;16.212;2023-03-03T22:08:58;98018.28;;;0.59;66.15
15674;BME280;7937;48.090;16.212;2023-03-03T22:12:00;98023.19;;;0.54;66.58
15674;BME280;7937;48.090;16.212;2023-03-03T22:15:02;98030.63;;;0.50;66.71
15674;BME280;7937;48.090;16.212;2023-03-03T22:18:04;98023.09;;;0.39;67.05
15674;BME280;7937;48.090;16.212;2023-03-03T22:21:07;98027.38;;;0.40;67.06
15674;BME280;7937;48.090;16.212;2023-03-03T22:24:09;98028.00;;;0.42;67.03
15674;BME280;7937;48.090;16.212;2023-03-03T22:27:11;98028.66;;;0.44;66.80
15674;BME280;7937;48.090;16.212;2023-03-03T22:30:14;98028.66;;;0.44;66.63
15674;BME280;7937;48.090;16.212;2023-03-03T22:33:16;98024.56;;;0.41;67.15
15674;BME280;7937;48.090;16.212;2023-03-03T22:36:19;98032.75;;;0.38;66.88
15674;BME280;7937;48.090;16.212;2023-03-03T22:39:20;98021.63;;;0.36;66.84
15674;BME280;7937;48.090;16.212;2023-03-03T22:42:22;98023.59;;;0.34;66.94
15674;BME280;7937;48.090;16.212;2023-03-03T22:45:25;98024.63;;;0.25;67.17
15674;BME280;7937;48.090;16.212;2023-03-03T22:48:28;98026.59;;;0.23;67.25